sensor_id;sensor_type;location;lat;lon;timestamp;pressure;altitude;pressure_sealevel;temperature;humidity
76832;BME280;65792;52.880;13.012;2022-12-07T00:01:30;100882.53;;;0.99;98.10
76832;BME280;65792;52.880;13.012;2022-12-07T00:04:00;100884.38;;;0.92;98.15
76832;BME280;65792;52.880;13.012;2022-12-07T00:06:41;100880.63;;;1.07;97.97
76832;BME280;65792;52.880;13.012;2022-12-07T00:09:10;100878.28;;;0.99;97.80
76832;BME280;65792;52.880;13.012;2022-12-07T00:11:36;100875.22;;;0.85;97.71
76832;BME280;65792;52.880;13.012;2022-12-07T00:14:04;100869.28;;;0.86;97.92
76832;BME280;65792;52.880;13.012;2022-12-07T00:16:32;100864.41;;;0.76;97.85
76832;BME280;65792;52.880;13.012;2022-12-07T00:18:58;100860.28;;;0.72;98.10
76832;BME280;65792;52.880;13.012;2022-12-07T00:21:27;100865.59;;;0.61;98.40
76832;BME280;65792;52.880;13.012;2022-12-07T00:23:54;100858.84;;;0.60;98.69
76832;BME280;65792;52.880;13.012;2022-12-07T00:26:23;100858.09;;;0.55;98.53
76832;BME280;65792;52.880;13.012;2022-12-07T00:28:51;100858.25;;;0.47;98.41
76832;BME280;65792;52.880;13.012;2022-12-07T00:31:18;100854.75;;;0.53;98.38
76832;BME280;65792;52.880;13.012;2022-12-07T00:33:44;100857.22;;;0.56;98.59
76832;BME280;65792;52.880;13.012;2022-12-07T00:36:16;100852.13;;;0.56;98.20
76832;BME280;65792;52.880;13.012;2022-12-07T00:38:42;100847.78;;;0.61;98.48
76832;BME280;65792;52.880;13.012;2022-12-07T00:41:13;100847.09;;;0.54;98.18
76832;BME280;65792;52.880;13.012;2022-12-07T00:43:41;100849.56;;;0.57;98.45
76832;BME280;65792;52.880;13.012;2022-12-07T00:46:07;100849.72;;;0.50;98.54
76832;BME280;65792;52.880;13.012;2022-12-07T00:48:33;100837.69;;;0.58;98.52
76832;BME280;65792;52.880;13.012;2022-12-07T00:50:59;100841.94;;;0.57;98.25
76832;BME280;65792;52.880;13.012;2022-12-07T00:53:25;100840.09;;;0.64;98.54
76832;BME280;65792;52.880;13.012;2022-12-07T00:55:51;100840.19;;;0.59;98.39
76832;BME280;65792;52.880;13.012;2022-12-07T00:58:18;100828.34;;;0.58;98.47
76832;BME280;65792;52.880;13.012;2022-12-07T01:00:44;100832.59;;;0.58;98.52
76832;BME280;65792;52.880;13.012;2022-12-07T01:03:12;100828.72;;;0.43;98.75
76832;BME280;65792;52.880;13.012;2022-12-07T01:05:38;100826.91;;;0.47;98.53
76832;BME280;65792;52.880;13.012;2022-12-07T01:08:04;100831.00;;;0.54;98.59
76832;BME280;65792;52.880;13.012;2022-12-07T01:10:29;100827.38;;;0.64;98.23
76832;BME280;65792;52.880;13.012;2022-12-07T01:12:57;100826.56;;;0.62;98.65
76832;BME280;65792;52.880;13.012;2022-12-07T01:15:23;100819.31;;;0.45;98.38
76832;BME280;65792;52.880;13.012;2022-12-07T01:17:49;100816.66;;;0.50;98.07
76832;BME280;65792;52.880;13.012;2022-12-07T01:20:14;100810.97;;;0.40;98.11
76832;BME280;65792;52.880;13.012;2022-12-07T01:22:42;100818.78;;;0.32;98.35
76832;BME280;65792;52.880;13.012;2022-12-07T01:25:09;100813.56;;;0.39;98.25
76832;BME280;65792;52.880;13.012;2022-12-07T01:27:35;100813.75;;;0.29;98.28
76832;BME280;65792;52.880;13.012;2022-12-07T01:30:03;100807.63;;;0.38;98.56
76832;BME280;65792;52.880;13.012;2022-12-07T01:32:29;100811.13;;;0.32;98.19
76832;BME280;65792;52.880;13.012;2022-12-07T01:34:55;100806.94;;;0.31;98.72
76832;BME280;65792;52.880;13.012;2022-12-07T01:40:03;100804.34;;;0.33;98.32
76832;BME280;65792;52.880;13.012;2022-12-07T01:42:28;100792.41;;;0.37;98.29
76832;BME280;65792;52.880;13.012;2022-12-07T01:47:58;100790.97;;;0.25;98.40
76832;BME280;65792;52.880;13.012;2022-12-07T01:50:26;100781.03;;;0.14;98.08
76832;BME280;65792;52.880;13.012;2022-12-07T01:52:55;100790.31;;;0.15;98.48
76832;BME280;65792;52.880;13.012;2022-12-07T01:55:22;100788.59;;;0.17;98.51
76832;BME280;65792;52.880;13.012;2022-12-07T01:57:49;100792.19;;;0.07;98.22
76832;BME280;65792;52.880;13.012;2022-12-07T02:00:16;100784.47;;;0.12;98.79
76832;BME280;65792;52.880;13.012;2022-12-07T02:02:55;100785.38;;;0.09;98.35
76832;BME280;65792;52.880;13.012;2022-12-07T02:05:24;100772.66;;;0.09;98.17
76832;BME280;65792;52.880;13.012;2022-12-07T02:07:51;100764.06;;;0.15;98.17
76832;BME280;65792;52.880;13.012;2022-12-07T02:10:22;100764.03;;;0.16;98.05
76832;BME280;65792;52.880;13.012;2022-12-07T02:12:53;100769.09;;;0.18;98.26
76832;BME280;65792;52.880;13.012;2022-12-07T02:15:22;100765.91;;;0.08;97.94
76832;BME280;65792;52.880;13.012;2022-12-07T02:18:07;100760.69;;;0.14;98.15
76832;BME280;65792;52.880;13.012;2022-12-07T02:20:49;100743.78;;;0.13;98.47
76832;BME280;65792;52.880;13.012;2022-12-07T02:23:23;100737.91;;;0.11;98.49
76832;BME280;65792;52.880;13.012;2022-12-07T02:26:35;100737.13;;;0.08;98.46
76832;BME280;65792;52.880;13.012;2022-12-07T02:29:22;100724.38;;;0.09;98.32
76832;BME280;65792;52.880;13.012;2022-12-07T02:32:00;100717.09;;;-0.05;98.01
76832;BME280;65792;52.880;13.012;2022-12-07T02:34:42;100715.19;;;0.04;98.54
76832;BME280;65792;52.880;13.012;2022-12-07T02:37:19;100716.91;;;0.03;97.81
76832;BME280;65792;52.880;13.012;2022-12-07T02:39:54;100715.19;;;0.04;98.33
76832;BME280;65792;52.880;13.012;2022-12-07T02:42:45;100705.03;;;0.04;98.57
76832;BME280;65792;52.880;13.012;2022-12-07T02:45:15;100696.44;;;0.09;98.21
76832;BME280;65792;52.880;13.012;2022-12-07T02:47:43;100700.50;;;0.16;98.53
76832;BME280;65792;52.880;13.012;2022-12-07T02:50:10;100698.91;;;0.12;98.25
76832;BME280;65792;52.880;13.012;2022-12-07T02:52:36;100688.25;;;-0.02;98.08
76832;BME280;65792;52.880;13.012;2022-12-07T02:55:01;100680.53;;;0.01;98.31
76832;BME280;65792;52.880;13.012;2022-12-07T03:00:14;100680.41;;;0.07;98.41
76832;BME280;65792;52.880;13.012;2022-12-07T03:05:41;100669.47;;;0.04;98.75
76832;BME280;65792;52.880;13.012;2022-12-07T03:08:18;100666.03;;;0.06;98.77
76832;BME280;65792;52.880;13.012;2022-12-07T03:16:18;100659.25;;;0.05;98.77
76832;BME280;65792;52.880;13.012;2022-12-07T03:18:58;100656.75;;;0.04;98.75
76832;BME280;65792;52.880;13.012;2022-12-07T03:21:27;100645.69;;;0.06;98.90
76832;BME280;65792;52.880;13.012;2022-12-07T03:23:58;100643.44;;;-0.05;99.19
76832;BME280;65792;52.880;13.012;2022-12-07T03:26:31;100638.88;;;0.08;99.21
76832;BME280;65792;52.880;13.012;2022-12-07T03:29:05;100634.59;;;0.10;99.24
76832;BME280;65792;52.880;13.012;2022-12-07T03:31:34;100634.59;;;0.10;98.85
76832;BME280;65792;52.880;13.012;2022-12-07T03:34:11;100629.28;;;0.19;99.13
76832;BME280;65792;52.880;13.012;2022-12-07T03:36:47;100634.34;;;0.21;98.81
76832;BME280;65792;52.880;13.012;2022-12-07T03:39:26;100630.75;;;0.29;98.92
76832;BME280;65792;52.880;13.012;2022-12-07T03:41:54;100626.53;;;0.28;98.76
76832;BME280;65792;52.880;13.012;2022-12-07T03:44:22;100620.81;;;0.20;98.79
76832;BME280;65792;52.880;13.012;2022-12-07T03:55:48;100610.41;;;0.29;99.32
76832;BME280;65792;52.880;13.012;2022-12-07T03:57:44;100599.22;;;0.37;99.17
76832;BME280;65792;52.880;13.012;2022-12-07T04:00:11;100597.56;;;0.36;99.20
76832;BME280;65792;52.880;13.012;2022-12-07T04:02:38;100598.38;;;0.36;99.51
76832;BME280;65792;52.880;13.012;2022-12-07T04:05:04;100590.75;;;0.36;99.25
76832;BME280;65792;52.880;13.012;2022-12-07T04:07:30;100583.84;;;0.41;99.67
76832;BME280;65792;52.880;13.012;2022-12-07T04:09:55;100578.63;;;0.46;99.43
76832;BME280;65792;52.880;13.012;2022-12-07T04:12:22;100572.75;;;0.44;99.63
76832;BME280;65792;52.880;13.012;2022-12-07T04:14:48;100577.75;;;0.47;99.63
76832;BME280;65792;52.880;13.012;2022-12-07T04:17:13;100575.97;;;0.50;99.36
76832;BME280;65792;52.880;13.012;2022-12-07T04:19:39;100577.72;;;0.48;99.79
76832;BME280;65792;52.880;13.012;2022-12-07T04:22:05;100574.22;;;0.52;99.37
76832;BME280;65792;52.880;13.012;2022-12-07T04:24:30;100568.25;;;0.53;99.74
76832;BME280;65792;52.880;13.012;2022-12-07T04:26:56;100568.22;;;0.55;99.47
76832;BME280;65792;52.880;13.012;2022-12-07T04:29:22;100568.13;;;0.58;99.74
76832;BME280;65792;52.880;13.012;2022-12-07T04:31:48;100558.72;;;0.61;99.64
76832;BME280;65792;52.880;13.012;2022-12-07T04:34:15;100556.94;;;0.65;99.45
76832;BME280;65792;52.880;13.012;2022-12-07T04:36:41;100558.59;;;0.66;100.00
76832;BME280;65792;52.880;13.012;2022-12-07T04:39:09;100556.72;;;0.73;99.75
76832;BME280;65792;52.880;13.012;2022-12-07T04:41:38;100551.50;;;0.77;99.74
76832;BME280;65792;52.880;13.012;2022-12-07T04:44:04;100553.19;;;0.78;99.68
76832;BME280;65792;52.880;13.012;2022-12-07T04:46:32;100555.69;;;0.80;99.36
76832;BME280;65792;52.880;13.012;2022-12-07T04:48:58;100549.72;;;0.81;99.34
76832;BME280;65792;52.880;13.012;2022-12-07T04:51:27;100547.09;;;0.84;99.74
76832;BME280;65792;52.880;13.012;2022-12-07T04:53:53;100550.31;;;0.89;99.93
76832;BME280;65792;52.880;13.012;2022-12-07T04:56:18;100540.06;;;0.92;99.93
76832;BME280;65792;52.880;13.012;2022-12-07T04:58:46;100540.00;;;0.93;100.00
76832;BME280;65792;52.880;13.012;2022-12-07T05:01:13;100537.34;;;0.98;100.00
76832;BME280;65792;52.880;13.012;2022-12-07T05:03:39;100544.88;;;1.01;99.79
76832;BME280;65792;52.880;13.012;2022-12-07T05:06:06;100530.38;;;1.05;99.99
76832;BME280;65792;52.880;13.012;2022-12-07T05:08:34;100533.69;;;1.07;99.75
76832;BME280;65792;52.880;13.012;2022-12-07T05:11:01;100537.81;;;1.11;99.89
76832;BME280;65792;52.880;13.012;2022-12-07T05:13:27;100523.25;;;1.16;99.72
76832;BME280;65792;52.880;13.012;2022-12-07T05:15:52;100525.00;;;1.14;99.69
76832;BME280;65792;52.880;13.012;2022-12-07T05:18:17;100513.94;;;1.15;99.84
76832;BME280;65792;52.880;13.012;2022-12-07T05:20:44;100515.66;;;1.14;100.00
76832;BME280;65792;52.880;13.012;2022-12-07T05:23:10;100507.72;;;1.25;100.00
76832;BME280;65792;52.880;13.012;2022-12-07T05:25:36;100504.38;;;1.23;100.00
76832;BME280;65792;52.880;13.012;2022-12-07T05:28:02;100510.13;;;1.29;99.71
76832;BME280;65792;52.880;13.012;2022-12-07T05:30:27;100505.03;;;1.29;99.99
76832;BME280;65792;52.880;13.012;2022-12-07T05:32:53;100499.84;;;1.31;99.99
76832;BME280;65792;52.880;13.012;2022-12-07T05:35:19;100491.25;;;1.35;99.49
76832;BME280;65792;52.880;13.012;2022-12-07T05:37:44;100492.81;;;1.39;99.65
76832;BME280;65792;52.880;13.012;2022-12-07T05:40:11;100491.25;;;1.35;99.51
76832;BME280;65792;52.880;13.012;2022-12-07T05:42:37;100490.28;;;1.39;99.49
76832;BME280;65792;52.880;13.012;2022-12-07T05:45:03;100490.22;;;1.41;99.93
76832;BME280;65792;52.880;13.012;2022-12-07T05:47:29;100491.16;;;1.38;99.84
76832;BME280;65792;52.880;13.012;2022-12-07T05:49:54;100491.16;;;1.38;99.91
76832;BME280;65792;52.880;13.012;2022-12-07T05:52:20;100486.84;;;1.40;99.44
76832;BME280;65792;52.880;13.012;2022-12-07T05:54:46;100484.31;;;1.40;99.93
76832;BME280;65792;52.880;13.012;2022-12-07T05:57:11;100486.72;;;1.45;99.89
76832;BME280;65792;52.880;13.012;2022-12-07T05:59:37;100478.13;;;1.47;99.82
76832;BME280;65792;52.880;13.012;2022-12-07T06:02:13;100477.31;;;1.47;99.81
76832;BME280;65792;52.880;13.012;2022-12-07T06:04:44;100478.00;;;1.52;99.49
76832;BME280;65792;52.880;13.012;2022-12-07T06:07:13;100474.72;;;1.48;99.63
76832;BME280;65792;52.880;13.012;2022-12-07T06:09:39;100470.50;;;1.47;99.42
76832;BME280;65792;52.880;13.012;2022-12-07T06:12:06;100467.94;;;1.47;99.89
76832;BME280;65792;52.880;13.012;2022-12-07T06:14:50;100468.78;;;1.48;99.89
76832;BME280;65792;52.880;13.012;2022-12-07T06:17:16;100461.97;;;1.48;99.79
76832;BME280;65792;52.880;13.012;2022-12-07T06:19:42;100471.34;;;1.48;99.82
76832;BME280;65792;52.880;13.012;2022-12-07T06:22:09;100460.16;;;1.52;99.72
76832;BME280;65792;52.880;13.012;2022-12-07T06:24:36;100461.06;;;1.51;99.78
76832;BME280;65792;52.880;13.012;2022-12-07T06:27:01;100461.84;;;1.53;99.92
76832;BME280;65792;52.880;13.012;2022-12-07T06:29:27;100461.88;;;1.51;99.83
76832;BME280;65792;52.880;13.012;2022-12-07T06:31:53;100460.16;;;1.52;99.53
76832;BME280;65792;52.880;13.012;2022-12-07T06:34:20;100460.91;;;1.55;99.89
76832;BME280;65792;52.880;13.012;2022-12-07T06:36:49;100456.69;;;1.54;99.47
76832;BME280;65792;52.880;13.012;2022-12-07T06:39:22;100456.69;;;1.54;99.64
76832;BME280;65792;52.880;13.012;2022-12-07T06:41:49;100465.91;;;1.58;99.80
76832;BME280;65792;52.880;13.012;2022-12-07T06:44:17;100454.84;;;1.59;99.55
76832;BME280;65792;52.880;13.012;2022-12-07T06:46:42;100465.75;;;1.63;99.59
76832;BME280;65792;52.880;13.012;2022-12-07T06:49:07;100460.72;;;1.61;99.51
76832;BME280;65792;52.880;13.012;2022-12-07T06:51:34;100467.47;;;1.62;99.73
76832;BME280;65792;52.880;13.012;2022-12-07T06:54:03;100467.28;;;1.69;99.97
76832;BME280;65792;52.880;13.012;2022-12-07T06:56:29;100470.81;;;1.64;99.32
76832;BME280;65792;52.880;13.012;2022-12-07T06:58:54;100467.38;;;1.65;99.91
76832;BME280;65792;52.880;13.012;2022-12-07T07:01:20;100474.22;;;1.63;99.90
76832;BME280;65792;52.880;13.012;2022-12-07T07:03:46;100478.41;;;1.66;99.61
76832;BME280;65792;52.880;13.012;2022-12-07T07:06:12;100478.59;;;1.60;99.18
76832;BME280;65792;52.880;13.012;2022-12-07T07:08:39;100478.53;;;1.61;99.45
76832;BME280;65792;52.880;13.012;2022-12-07T07:11:06;100480.31;;;1.59;99.53
76832;BME280;65792;52.880;13.012;2022-12-07T07:13:32;100482.84;;;1.59;98.97
76832;BME280;65792;52.880;13.012;2022-12-07T07:15:57;100483.63;;;1.61;98.83
76832;BME280;65792;52.880;13.012;2022-12-07T07:18:24;100484.50;;;1.60;98.93
76832;BME280;65792;52.880;13.012;2022-12-07T07:20:50;100488.88;;;1.57;98.81
76832;BME280;65792;52.880;13.012;2022-12-07T07:23:16;100486.38;;;1.55;98.75
76832;BME280;65792;52.880;13.012;2022-12-07T07:25:42;100488.03;;;1.56;98.74
76832;BME280;65792;52.880;13.012;2022-12-07T07:28:07;100494.91;;;1.54;98.46
76832;BME280;65792;52.880;13.012;2022-12-07T07:30:33;100489.03;;;1.52;98.80
76832;BME280;65792;52.880;13.012;2022-12-07T07:32:59;100489.84;;;1.53;98.61
76832;BME280;65792;52.880;13.012;2022-12-07T07:35:26;100491.50;;;1.54;98.46
76832;BME280;65792;52.880;13.012;2022-12-07T07:37:52;100491.56;;;1.52;98.76
76832;BME280;65792;52.880;13.012;2022-12-07T07:40:18;100493.22;;;1.53;98.29
76832;BME280;65792;52.880;13.012;2022-12-07T07:42:43;100502.53;;;1.54;98.76
76832;BME280;65792;52.880;13.012;2022-12-07T07:45:09;100500.03;;;1.53;98.57
76832;BME280;65792;52.880;13.012;2022-12-07T07:47:35;100502.44;;;1.57;98.89
76832;BME280;65792;52.880;13.012;2022-12-07T07:50:00;100499.91;;;1.57;98.45
76832;BME280;65792;52.880;13.012;2022-12-07T07:52:26;100494.69;;;1.60;98.66
76832;BME280;65792;52.880;13.012;2022-12-07T07:54:51;100493.78;;;1.63;98.82
76832;BME280;65792;52.880;13.012;2022-12-07T07:57:17;100504.84;;;1.62;98.51
76832;BME280;65792;52.880;13.012;2022-12-07T07:59:43;100499.78;;;1.60;98.39
76832;BME280;65792;52.880;13.012;2022-12-07T08:02:14;100495.59;;;1.59;98.45
76832;BME280;65792;52.880;13.012;2022-12-07T08:04:40;100503.31;;;1.56;98.47
76832;BME280;65792;52.880;13.012;2022-12-07T08:07:05;100507.34;;;1.63;98.26
76832;BME280;65792;52.880;13.012;2022-12-07T08:09:30;100511.47;;;1.67;98.02
76832;BME280;65792;52.880;13.012;2022-12-07T08:11:56;100507.94;;;1.72;98.15
76832;BME280;65792;52.880;13.012;2022-12-07T08:14:22;100512.28;;;1.68;97.78
76832;BME280;65792;52.880;13.012;2022-12-07T08:16:48;100502.94;;;1.69;97.99
76832;BME280;65792;52.880;13.012;2022-12-07T08:19:13;100505.53;;;1.67;97.64
76832;BME280;65792;52.880;13.012;2022-12-07T08:21:39;100509.69;;;1.70;97.59
76832;BME280;65792;52.880;13.012;2022-12-07T08:24:04;100511.38;;;1.71;97.86
76832;BME280;65792;52.880;13.012;2022-12-07T08:26:30;100509.69;;;1.70;97.96
76832;BME280;65792;52.880;13.012;2022-12-07T08:28:55;100520.66;;;1.72;97.35
76832;BME280;65792;52.880;13.012;2022-12-07T08:31:21;100518.22;;;1.69;97.36
76832;BME280;65792;52.880;13.012;2022-12-07T08:33:48;100513.13;;;1.69;97.38
76832;BME280;65792;52.880;13.012;2022-12-07T08:36:14;100522.47;;;1.68;97.26
76832;BME280;65792;52.880;13.012;2022-12-07T08:38:41;100526.84;;;1.64;97.08
76832;BME280;65792;52.880;13.012;2022-12-07T08:41:07;100524.28;;;1.64;97.57
76832;BME280;65792;52.880;13.012;2022-12-07T08:43:33;100524.19;;;1.67;97.32
76832;BME280;65792;52.880;13.012;2022-12-07T08:48:25;100533.50;;;1.69;97.42
76832;BME280;65792;52.880;13.012;2022-12-07T08:50:51;100531.84;;;1.67;97.60
76832;BME280;65792;52.880;13.012;2022-12-07T08:53:17;100547.22;;;1.64;97.49
76832;BME280;65792;52.880;13.012;2022-12-07T08:55:44;100539.63;;;1.63;96.64
76832;BME280;65792;52.880;13.012;2022-12-07T08:58:11;100544.72;;;1.63;96.29
76832;BME280;65792;52.880;13.012;2022-12-07T09:00:37;100548.16;;;1.62;95.84
76832;BME280;65792;52.880;13.012;2022-12-07T09:03:02;100550.75;;;1.60;96.73
76832;BME280;65792;52.880;13.012;2022-12-07T09:05:28;100547.31;;;1.61;97.20
76832;BME280;65792;52.880;13.012;2022-12-07T09:07:57;100548.97;;;1.62;96.20
76832;BME280;65792;52.880;13.012;2022-12-07T09:10:25;100552.44;;;1.60;97.19
76832;BME280;65792;52.880;13.012;2022-12-07T09:12:51;100558.34;;;1.62;96.58
76832;BME280;65792;52.880;13.012;2022-12-07T09:15:17;100561.06;;;1.56;96.25
76832;BME280;65792;52.880;13.012;2022-12-07T09:17:42;100559.44;;;1.53;95.50
76832;BME280;65792;52.880;13.012;2022-12-07T09:20:08;100562.78;;;1.55;95.75
76832;BME280;65792;52.880;13.012;2022-12-07T09:22:34;100570.41;;;1.55;94.67
76832;BME280;65792;52.880;13.012;2022-12-07T09:25:00;100565.31;;;1.55;95.48
76832;BME280;65792;52.880;13.012;2022-12-07T09:27:26;100567.88;;;1.55;95.02
76832;BME280;65792;52.880;13.012;2022-12-07T09:29:52;100573.75;;;1.57;95.41
76832;BME280;65792;52.880;13.012;2022-12-07T09:32:18;100566.81;;;1.62;95.28
76832;BME280;65792;52.880;13.012;2022-12-07T09:34:43;100571.13;;;1.60;94.36
76832;BME280;65792;52.880;13.012;2022-12-07T09:37:09;100574.59;;;1.58;94.19
76832;BME280;65792;52.880;13.012;2022-12-07T09:39:38;100560.50;;;1.46;94.84
76832;BME280;65792;52.880;13.012;2022-12-07T09:42:05;100563.94;;;1.45;95.49
76832;BME280;65792;52.880;13.012;2022-12-07T09:44:32;100572.72;;;1.35;95.18
76832;BME280;65792;52.880;13.012;2022-12-07T09:46:58;100577.28;;;1.25;95.60
76832;BME280;65792;52.880;13.012;2022-12-07T09:49:25;100576.69;;;1.16;95.56
76832;BME280;65792;52.880;13.012;2022-12-07T09:54:36;100568.00;;;1.23;94.59
76832;BME280;65792;52.880;13.012;2022-12-07T09:57:02;100571.41;;;1.23;94.75
76832;BME280;65792;52.880;13.012;2022-12-07T09:59:28;100573.97;;;1.22;94.15
76832;BME280;65792;52.880;13.012;2022-12-07T10:01:55;100577.06;;;1.31;94.08
76832;BME280;65792;52.880;13.012;2022-12-07T10:04:24;100572.53;;;1.13;95.25
76832;BME280;65792;52.880;13.012;2022-12-07T10:06:51;100577.66;;;1.12;95.25
76832;BME280;65792;52.880;13.012;2022-12-07T10:09:19;100571.81;;;1.08;96.33
76832;BME280;65792;52.880;13.012;2022-12-07T10:12:05;100572.50;;;1.15;96.40
76832;BME280;65792;52.880;13.012;2022-12-07T10:14:36;100568.72;;;1.28;95.12
76832;BME280;65792;52.880;13.012;2022-12-07T10:17:02;100568.53;;;1.32;94.74
76832;BME280;65792;52.880;13.012;2022-12-07T10:19:32;100554.63;;;1.44;93.80
76832;BME280;65792;52.880;13.012;2022-12-07T10:22:02;100569.53;;;1.56;93.82
76832;BME280;65792;52.880;13.012;2022-12-07T10:24:28;100574.06;;;1.47;94.32
76832;BME280;65792;52.880;13.012;2022-12-07T10:26:55;100579.91;;;1.50;93.76
76832;BME280;65792;52.880;13.012;2022-12-07T10:29:39;100574.81;;;1.50;94.30
76832;BME280;65792;52.880;13.012;2022-12-07T10:32:24;100571.28;;;1.54;94.79
76832;BME280;65792;52.880;13.012;2022-12-07T10:35:25;100574.53;;;1.59;95.96
76832;BME280;65792;52.880;13.012;2022-12-07T10:37:52;100572.44;;;1.72;95.39
76832;BME280;65792;52.880;13.012;2022-12-07T10:40:34;100574.16;;;1.72;94.61
76832;BME280;65792;52.880;13.012;2022-12-07T10:45:35;100573.22;;;1.74;94.78
76832;BME280;65792;52.880;13.012;2022-12-07T10:48:19;100571.44;;;1.76;94.19
76832;BME280;65792;52.880;13.012;2022-12-07T10:54:10;100565.53;;;1.76;94.42
76832;BME280;65792;52.880;13.012;2022-12-07T11:01:58;100565.88;;;1.65;93.14
76832;BME280;65792;52.880;13.012;2022-12-07T11:10:05;100566.63;;;1.69;94.66
76832;BME280;65792;52.880;13.012;2022-12-07T11:15:19;100551.13;;;1.75;93.72
76832;BME280;65792;52.880;13.012;2022-12-07T11:23:21;100551.19;;;1.73;93.74
76832;BME280;65792;52.880;13.012;2022-12-07T11:25:53;100555.38;;;1.74;94.40
76832;BME280;65792;52.880;13.012;2022-12-07T11:31:22;100544.34;;;1.74;93.13
76832;BME280;65792;52.880;13.012;2022-12-07T11:36:42;100523.97;;;1.74;94.13
76832;BME280;65792;52.880;13.012;2022-12-07T11:41:45;100521.13;;;1.83;94.70
76832;BME280;65792;52.880;13.012;2022-12-07T11:44:37;100524.31;;;1.89;93.19
76832;BME280;65792;52.880;13.012;2022-12-07T11:49:51;100517.31;;;1.96;93.35
76832;BME280;65792;52.880;13.012;2022-12-07T11:55:57;100523.88;;;2.03;93.62
76832;BME280;65792;52.880;13.012;2022-12-07T12:06:22;100508.41;;;2.32;91.63
76832;BME280;65792;52.880;13.012;2022-12-07T12:22:46;100502.41;;;2.33;91.40
76832;BME280;65792;52.880;13.012;2022-12-07T12:25:30;100499.66;;;2.40;92.14
76832;BME280;65792;52.880;13.012;2022-12-07T12:27:59;100503.56;;;2.50;91.43
76832;BME280;65792;52.880;13.012;2022-12-07T12:30:34;100501.16;;;2.45;91.93
76832;BME280;65792;52.880;13.012;2022-12-07T12:33:18;100501.22;;;2.44;91.85
76832;BME280;65792;52.880;13.012;2022-12-07T12:47:37;100514.69;;;2.22;93.35
76832;BME280;65792;52.880;13.012;2022-12-07T12:53:03;100507.94;;;2.21;92.38
76832;BME280;65792;52.880;13.012;2022-12-07T13:00:42;100508.88;;;2.19;93.46
76832;BME280;65792;52.880;13.012;2022-12-07T13:03:27;100509.06;;;2.14;93.42
76832;BME280;65792;52.880;13.012;2022-12-07T13:08:51;100511.38;;;2.20;92.77
76832;BME280;65792;52.880;13.012;2022-12-07T13:11:54;100512.94;;;2.24;92.83
76832;BME280;65792;52.880;13.012;2022-12-07T13:19:58;100502.53;;;2.30;92.24
76832;BME280;65792;52.880;13.012;2022-12-07T13:25:36;100505.19;;;2.27;92.28
76832;BME280;65792;52.880;13.012;2022-12-07T13:28:17;100504.66;;;2.18;91.63
76832;BME280;65792;52.880;13.012;2022-12-07T13:33:35;100504.38;;;2.02;92.97
76832;BME280;65792;52.880;13.012;2022-12-07T13:36:01;100506.22;;;1.97;93.01
76832;BME280;65792;52.880;13.012;2022-12-07T13:38:30;100508.88;;;1.94;92.44
76832;BME280;65792;52.880;13.012;2022-12-07T13:43:30;100499.81;;;1.85;92.50
76832;BME280;65792;52.880;13.012;2022-12-07T13:45:58;100510.91;;;1.84;92.44
76832;BME280;65792;52.880;13.012;2022-12-07T13:48:49;100505.84;;;1.83;92.54
76832;BME280;65792;52.880;13.012;2022-12-07T13:51:24;100498.50;;;1.74;92.85
76832;BME280;65792;52.880;13.012;2022-12-07T13:53:53;100502.88;;;1.70;92.88
76832;BME280;65792;52.880;13.012;2022-12-07T13:56:22;100509.66;;;1.71;92.10
76832;BME280;65792;52.880;13.012;2022-12-07T13:58:51;100502.25;;;1.63;93.39
76832;BME280;65792;52.880;13.012;2022-12-07T14:01:17;100499.75;;;1.62;92.73
76832;BME280;65792;52.880;13.012;2022-12-07T14:03:43;100498.56;;;1.72;91.17
76832;BME280;65792;52.880;13.012;2022-12-07T14:06:16;100508.50;;;1.53;93.01
76832;BME280;65792;52.880;13.012;2022-12-07T14:08:43;100502.03;;;1.43;92.86
76832;BME280;65792;52.880;13.012;2022-12-07T14:11:29;100505.75;;;1.33;93.82
76832;BME280;65792;52.880;13.012;2022-12-07T14:14:00;100504.91;;;1.32;93.45
76832;BME280;65792;52.880;13.012;2022-12-07T14:16:35;100508.09;;;1.39;92.73
76832;BME280;65792;52.880;13.012;2022-12-07T14:19:03;100501.66;;;1.29;93.77
76832;BME280;65792;52.880;13.012;2022-12-07T14:21:33;100506.91;;;1.23;94.14
76832;BME280;65792;52.880;13.012;2022-12-07T14:26:28;100499.81;;;1.32;92.98
76832;BME280;65792;52.880;13.012;2022-12-07T14:29:30;100496.47;;;1.30;93.17
76832;BME280;65792;52.880;13.012;2022-12-07T14:31:58;100496.69;;;1.24;94.11
76832;BME280;65792;52.880;13.012;2022-12-07T14:34:29;100496.66;;;1.26;94.17
76832;BME280;65792;52.880;13.012;2022-12-07T14:36:55;100504.06;;;1.32;95.04
76832;BME280;65792;52.880;13.012;2022-12-07T14:39:21;100493.13;;;1.30;95.09
76832;BME280;65792;52.880;13.012;2022-12-07T14:41:46;100494.00;;;1.29;95.21
76832;BME280;65792;52.880;13.012;2022-12-07T14:44:21;100501.03;;;1.21;95.40
76832;BME280;65792;52.880;13.012;2022-12-07T14:46:48;100499.28;;;1.23;95.06
76832;BME280;65792;52.880;13.012;2022-12-07T14:49:13;100501.44;;;1.35;94.49
76832;BME280;65792;52.880;13.012;2022-12-07T14:51:39;100491.19;;;1.37;93.41
76832;BME280;65792;52.880;13.012;2022-12-07T14:54:12;100486.47;;;1.26;93.64
76832;BME280;65792;52.880;13.012;2022-12-07T14:56:39;100493.78;;;1.09;93.82
76832;BME280;65792;52.880;13.012;2022-12-07T14:59:04;100490.44;;;1.07;93.74
76832;BME280;65792;52.880;13.012;2022-12-07T15:01:30;100491.59;;;0.96;93.51
76832;BME280;65792;52.880;13.012;2022-12-07T15:03:55;100502.94;;;0.86;93.91
76832;BME280;65792;52.880;13.012;2022-12-07T15:06:21;100501.25;;;0.85;94.76
76832;BME280;65792;52.880;13.012;2022-12-07T15:08:46;100495.56;;;0.77;95.54
76832;BME280;65792;52.880;13.012;2022-12-07T15:11:14;100491.19;;;0.51;95.92